Time;durP1;ratioP1;P1;durP2;ratioP2;P2;SDS_P1;SDS_P2;PMS_P1;PMS_P2;Temp;Humidity;BMP_temperature;BMP_pressure;BME280_temperature;BME280_humidity;BME280_pressure;Samples;Min_cycle;Max_cycle;Signal;HPM_P1;HPM_P2
2022/05/16 00:01:26;;;;;;;4.43;1.77;;;15.60;72.80;;;;;;5092376;28;21004;-76
2022/05/16 00:03:54;;;;;;;2.90;2.10;;;15.60;72.90;;;;;;5092509;28;20961;-77
2022/05/16 00:06:23;;;;;;;2.93;1.80;;;15.60;73.10;;;;;;5092546;28;20423;-76
2022/05/16 00:08:53;;;;;;;3.10;1.90;;;15.50;73.20;;;;;;5092557;28;20928;-76
2022/05/16 00:11:22;;;;;;;3.63;1.70;;;15.50;73.30;;;;;;5094317;28;20479;-76
2022/05/16 00:13:50;;;;;;;4.67;1.80;;;15.50;73.40;;;;;;5092503;28;20521;-76
2022/05/16 00:16:18;;;;;;;4.93;1.70;;;15.40;73.40;;;;;;5092258;28;20444;-77
2022/05/16 00:18:48;;;;;;;3.43;1.80;;;15.40;73.50;;;;;;5092118;28;21025;-77
2022/05/16 00:21:16;;;;;;;1.90;1.57;;;15.40;73.60;;;;;;5092061;28;20474;-77
2022/05/16 00:23:44;;;;;;;2.40;1.53;;;15.30;73.60;;;;;;5092047;28;20975;-77
2022/05/16 00:26:13;;;;;;;3.00;2.00;;;15.30;73.80;;;;;;5091899;28;20444;-76
2022/05/16 00:28:41;;;;;;;2.30;1.40;;;15.30;73.90;;;;;;5092082;28;20936;-77
2022/05/16 00:31:09;;;;;;;2.40;1.93;;;15.20;73.90;;;;;;5091991;28;20443;-76
2022/05/16 00:33:37;;;;;;;4.50;1.90;;;15.20;74.00;;;;;;5093414;28;20829;-76
2022/05/16 00:36:07;;;;;;;3.37;1.80;;;15.20;74.10;;;;;;5091939;28;20543;-76
2022/05/16 00:38:35;;;;;;;2.97;1.87;;;15.20;74.30;;;;;;5092342;28;20451;-76
2022/05/16 00:41:05;;;;;;;2.80;2.17;;;15.20;74.40;;;;;;5093300;28;20439;-76
2022/05/16 00:43:46;;;;;;;2.90;2.07;;;15.10;74.40;;;;;;5091725;28;20454;-76
2022/05/16 00:46:16;;;;;;;2.20;1.80;;;15.00;74.60;;;;;;5093205;28;20436;-76
2022/05/16 00:48:44;;;;;;;2.50;1.80;;;15.00;74.60;;;;;;5093057;28;20914;-76
2022/05/16 00:51:18;;;;;;;3.80;1.77;;;14.90;74.70;;;;;;5092276;28;20542;-76
2022/05/16 00:53:50;;;;;;;3.00;2.00;;;14.90;74.90;;;;;;5091952;28;20463;-77
2022/05/16 00:56:19;;;;;;;4.40;2.10;;;14.90;75.00;;;;;;5091733;28;20455;-76
2022/05/16 00:58:49;;;;;;;5.20;2.23;;;14.80;75.00;;;;;;5091624;28;20506;-76
2022/05/16 01:06:55;;;;;;;3.87;2.33;;;14.70;75.30;;;;;;5093680;28;20411;-76
2022/05/16 01:09:23;;;;;;;4.27;3.20;;;14.70;75.50;;;;;;5091689;28;20534;-77
2022/05/16 01:11:53;;;;;;;3.00;2.10;;;14.70;75.50;;;;;;5093295;28;20470;-77
2022/05/16 01:14:42;;;;;;;3.67;2.17;;;14.70;75.70;;;;;;5095185;28;20537;-76
2022/05/16 01:17:12;;;;;;;3.60;2.40;;;14.60;75.80;;;;;;5095327;28;20447;-77
2022/05/16 01:19:41;;;;;;;3.47;2.63;;;14.60;75.90;;;;;;5095089;28;20809;-76
2022/05/16 01:22:23;;;;;;;3.63;2.60;;;14.50;75.90;;;;;;5095169;28;20483;-77
2022/05/16 01:24:53;;;;;;;3.77;2.40;;;14.50;76.10;;;;;;5095021;28;20542;-77
2022/05/16 01:27:21;;;;;;;2.53;2.00;;;14.50;76.10;;;;;;5096266;28;20428;-77
2022/05/16 01:29:50;;;;;;;3.50;2.00;;;14.40;76.20;;;;;;5095128;28;20458;-77
2022/05/16 01:32:18;;;;;;;3.33;1.80;;;14.40;76.30;;;;;;5094716;28;20472;-77
2022/05/16 01:34:49;;;;;;;5.10;2.43;;;14.40;76.40;;;;;;5094758;28;20472;-77
2022/05/16 01:38:18;;;;;;;4.20;2.97;;;14.30;76.40;;;;;;5096721;28;20820;-76
2022/05/16 01:40:08;;;;;;;2.73;1.70;;;14.40;76.60;;;;;;5094585;28;20861;-77
2022/05/16 01:42:36;;;;;;;3.37;2.13;;;14.30;76.50;;;;;;5095845;28;20808;-77
2022/05/16 01:45:05;;;;;;;4.67;1.60;;;14.30;76.70;;;;;;5094629;28;20442;-77
2022/05/16 01:47:33;;;;;;;2.77;2.30;;;14.20;76.80;;;;;;5095806;28;20827;-77
2022/05/16 01:50:02;;;;;;;4.17;2.27;;;14.20;76.90;;;;;;5096032;28;20491;-77
2022/05/16 01:52:31;;;;;;;4.90;2.37;;;14.20;77.10;;;;;;5094857;28;20490;-77
2022/05/16 01:54:59;;;;;;;4.13;2.10;;;14.10;77.10;;;;;;5094344;28;20529;-77
2022/05/16 01:57:28;;;;;;;2.83;2.37;;;14.10;77.20;;;;;;5094571;28;20456;-77
2022/05/16 01:59:56;;;;;;;3.67;2.10;;;14.10;77.40;;;;;;5094307;28;20479;-77
2022/05/16 02:02:25;;;;;;;4.13;2.40;;;14.10;77.50;;;;;;5095741;28;20893;-77
2022/05/16 02:04:53;;;;;;;5.27;2.67;;;14.00;77.40;;;;;;5094164;28;20532;-77
2022/05/16 02:07:21;;;;;;;3.37;2.17;;;14.00;77.60;;;;;;5094283;28;20450;-77
2022/05/16 02:09:51;;;;;;;3.40;2.20;;;14.00;77.70;;;;;;5094264;28;20452;-77
2022/05/16 02:12:19;;;;;;;3.57;2.40;;;13.90;77.70;;;;;;5094059;28;20511;-77
2022/05/16 02:14:47;;;;;;;3.77;2.17;;;13.90;77.80;;;;;;5093985;28;20472;-77
2022/05/16 02:17:16;;;;;;;4.73;2.80;;;13.90;78.00;;;;;;5094004;28;20987;-77
2022/05/16 02:19:44;;;;;;;5.03;2.07;;;13.80;78.00;;;;;;5093996;28;20455;-76
2022/05/16 02:24:59;;;;;;;3.43;2.17;;;13.80;78.20;;;;;;5093782;28;20489;-77
2022/05/16 02:27:27;;;;;;;4.63;2.70;;;13.70;78.20;;;;;;5093798;28;20478;-77
2022/05/16 02:29:55;;;;;;;3.67;2.43;;;13.70;78.30;;;;;;5093849;28;20454;-77
2022/05/16 02:32:23;;;;;;;4.90;2.57;;;13.70;78.40;;;;;;5093575;28;20464;-77
2022/05/16 02:34:52;;;;;;;4.17;2.50;;;13.70;78.50;;;;;;5093546;28;21084;-77
2022/05/16 02:37:20;;;;;;;4.00;2.37;;;13.60;78.50;;;;;;5095107;28;20444;-77
2022/05/16 02:39:48;;;;;;;2.97;2.30;;;13.60;78.60;;;;;;5093547;28;20460;-76
2022/05/16 02:42:18;;;;;;;2.77;2.20;;;13.60;78.70;;;;;;5094665;28;20551;-77
2022/05/16 02:44:47;;;;;;;3.17;2.40;;;13.60;78.80;;;;;;5094877;28;20456;-77
2022/05/16 02:47:17;;;;;;;3.60;2.80;;;13.60;78.90;;;;;;5094601;28;20466;-77
2022/05/16 02:49:45;;;;;;;5.53;2.80;;;13.50;78.90;;;;;;5094804;28;20437;-77
2022/05/16 02:52:14;;;;;;;3.17;2.30;;;13.50;79.00;;;;;;5093481;28;20464;-77
2022/05/16 02:54:45;;;;;;;4.47;2.60;;;13.50;79.10;;;;;;5094435;28;20503;-77
2022/05/16 02:57:14;;;;;;;3.20;2.30;;;13.40;79.20;;;;;;5093257;28;20444;-76
2022/05/16 02:59:43;;;;;;;3.40;2.53;;;13.40;79.20;;;;;;5093124;28;20447;-76
2022/05/16 03:02:12;;;;;;;4.13;2.37;;;13.40;79.40;;;;;;5092955;28;20468;-76
2022/05/16 03:04:41;;;;;;;4.07;2.40;;;13.40;79.50;;;;;;5094327;28;20444;-77
2022/05/16 03:07:09;;;;;;;3.83;2.20;;;13.30;79.60;;;;;;5110192;28;20440;-77
2022/05/16 03:09:38;;;;;;;3.60;2.40;;;13.30;79.70;;;;;;5092948;28;20953;-76
2022/05/16 03:12:09;;;;;;;3.43;2.87;;;13.30;79.80;;;;;;5092800;28;20558;-76
2022/05/16 03:14:40;;;;;;;4.30;2.20;;;13.30;80.10;;;;;;5093411;28;20456;-76
2022/05/16 03:17:10;;;;;;;3.63;2.47;;;13.30;80.10;;;;;;5093396;28;20451;-76
2022/05/16 03:19:38;;;;;;;3.70;2.57;;;13.20;80.20;;;;;;5092852;28;20474;-76
2022/05/16 03:22:07;;;;;;;6.13;2.90;;;13.20;80.30;;;;;;5093978;28;20452;-76
2022/05/16 03:24:36;;;;;;;3.73;2.70;;;13.20;80.40;;;;;;5092906;28;20539;-77
2022/05/16 03:27:06;;;;;;;4.47;2.73;;;13.20;80.50;;;;;;5092608;28;20539;-76
2022/05/16 03:29:34;;;;;;;3.70;2.27;;;13.10;80.50;;;;;;5092804;28;20456;-76
2022/05/16 03:32:03;;;;;;;3.93;2.60;;;13.10;80.60;;;;;;5092870;28;21006;-76
2022/05/16 03:34:33;;;;;;;3.40;2.23;;;13.10;80.70;;;;;;5091970;28;20507;-76
2022/05/16 03:37:01;;;;;;;4.27;2.60;;;13.10;80.80;;;;;;5092549;28;20502;-76
2022/05/16 03:42:15;;;;;;;3.13;2.30;;;13.00;81.00;;;;;;5093941;28;20456;-76
2022/05/16 03:44:43;;;;;;;3.13;2.27;;;13.00;81.20;;;;;;5095247;28;20980;-77
2022/05/16 03:47:12;;;;;;;4.60;2.77;;;13.00;81.30;;;;;;5098800;28;20486;-77
2022/05/16 03:49:44;;;;;;;3.83;2.33;;;12.90;81.40;;;;;;5095278;28;20498;-76
2022/05/16 03:52:12;;;;;;;3.20;2.43;;;12.90;81.50;;;;;;5093561;28;20534;-76
2022/05/16 03:54:43;;;;;;;3.67;2.60;;;12.90;81.70;;;;;;5092187;28;20988;-75
2022/05/16 03:57:11;;;;;;;4.07;2.13;;;12.90;81.80;;;;;;5092226;28;20448;-75
2022/05/16 03:59:40;;;;;;;5.40;2.57;;;12.90;82.00;;;;;;5092584;28;20547;-75
2022/05/16 04:02:08;;;;;;;4.77;2.20;;;12.80;82.00;;;;;;5093313;28;20464;-76
2022/05/16 04:04:37;;;;;;;3.23;2.27;;;12.80;82.10;;;;;;5092775;28;20452;-76
2022/05/16 04:07:07;;;;;;;3.33;2.50;;;12.80;82.20;;;;;;5094126;28;20425;-76
2022/05/16 04:09:35;;;;;;;4.00;2.60;;;12.80;82.30;;;;;;5094970;28;20448;-76
2022/05/16 04:12:03;;;;;;;6.37;3.40;;;12.80;82.40;;;;;;5092443;28;20460;-76
2022/05/16 04:14:32;;;;;;;4.97;2.80;;;12.80;82.50;;;;;;5092821;28;20468;-75
2022/05/16 04:17:01;;;;;;;3.63;2.80;;;12.80;82.70;;;;;;5092884;28;20965;-76
2022/05/16 04:19:29;;;;;;;5.80;3.00;;;12.80;82.80;;;;;;5096297;28;20432;-76
2022/05/16 04:21:57;;;;;;;4.17;2.53;;;12.80;83.00;;;;;;5093260;28;20495;-76
2022/05/16 04:24:27;;;;;;;3.33;2.60;;;12.80;83.10;;;;;;5096207;28;20499;-76
2022/05/16 04:26:55;;;;;;;3.20;2.63;;;12.80;83.30;;;;;;5096015;28;20479;-76
2022/05/16 04:29:24;;;;;;;5.07;2.97;;;12.80;83.30;;;;;;5095010;28;20502;-76
2022/05/16 04:31:52;;;;;;;3.80;2.60;;;12.80;83.50;;;;;;5094874;28;20502;-75
2022/05/16 04:34:21;;;;;;;6.70;3.30;;;12.80;83.60;;;;;;5093681;28;20452;-76
2022/05/16 04:36:49;;;;;;;5.00;3.43;;;12.80;83.80;;;;;;5094329;28;20933;-75
2022/05/16 04:39:17;;;;;;;6.37;3.77;;;12.80;83.90;;;;;;5092622;28;20451;-76
2022/05/16 04:44:36;;;;;;;5.43;3.20;;;12.80;84.10;;;;;;5093593;28;20527;-76
2022/05/16 04:47:04;;;;;;;4.93;3.50;;;12.80;84.20;;;;;;5096727;28;20999;-75
2022/05/16 04:49:33;;;;;;;4.03;2.80;;;12.90;84.50;;;;;;5096110;28;20448;-75
2022/05/16 04:52:01;;;;;;;4.83;2.97;;;12.90;84.60;;;;;;5095939;28;20503;-75
2022/05/16 04:54:30;;;;;;;4.33;3.93;;;12.90;84.70;;;;;;5097070;28;20519;-76
2022/05/16 04:57:00;;;;;;;4.17;3.30;;;12.90;84.90;;;;;;5097541;28;20436;-76
2022/05/16 04:59:28;;;;;;;6.40;3.20;;;12.90;85.00;;;;;;5096005;28;20543;-75
2022/05/16 05:01:56;;;;;;;5.60;2.80;;;13.00;85.20;;;;;;5095780;28;20563;-75
2022/05/16 05:04:24;;;;;;;5.60;3.20;;;13.00;85.30;;;;;;5095572;28;20535;-75
2022/05/16 05:06:52;;;;;;;4.63;3.50;;;13.00;85.50;;;;;;5095473;28;20877;-75
2022/05/16 05:09:21;;;;;;;5.33;3.20;;;13.10;85.60;;;;;;5095619;28;20547;-75
2022/05/16 05:14:35;;;;;;;4.10;3.07;;;13.10;85.70;;;;;;5055477;28;21040;-75
2022/05/16 05:17:06;;;;;;;4.90;2.90;;;13.20;85.90;;;;;;5095207;28;20451;-74
2022/05/16 05:19:36;;;;;;;5.20;3.03;;;13.20;86.00;;;;;;5095211;28;20476;-75
2022/05/16 05:22:04;;;;;;;6.67;3.70;;;13.30;86.10;;;;;;5095335;28;20892;-75
2022/05/16 05:24:33;;;;;;;7.10;3.90;;;13.30;86.20;;;;;;5096569;28;20483;-76
2022/05/16 05:27:01;;;;;;;5.87;3.40;;;13.40;86.40;;;;;;5095324;28;20455;-75
2022/05/16 05:29:29;;;;;;;4.93;3.30;;;13.40;86.40;;;;;;5096564;28;20466;-76
2022/05/16 05:31:59;;;;;;;6.33;3.57;;;13.50;86.50;;;;;;5094773;28;20461;-76
2022/05/16 05:34:28;;;;;;;5.27;4.00;;;13.50;86.40;;;;;;5094847;28;20539;-75
2022/05/16 05:36:56;;;;;;;6.60;3.30;;;13.60;86.40;;;;;;5095927;28;20638;-75
2022/05/16 05:39:25;;;;;;;3.90;3.10;;;13.70;86.50;;;;;;5094561;28;20458;-76
2022/05/16 05:41:53;;;;;;;5.20;2.60;;;13.80;86.50;;;;;;5096179;28;20523;-75
2022/05/16 05:44:21;;;;;;;5.70;2.90;;;13.90;86.40;;;;;;5094620;28;20444;-75
2022/05/16 05:46:49;;;;;;;8.53;3.27;;;14.10;86.50;;;;;;5096335;28;20441;-75
2022/05/16 05:49:19;;;;;;;3.90;3.00;;;14.30;86.50;;;;;;5095955;28;20787;-75
2022/05/16 05:51:47;;;;;;;5.60;3.27;;;14.50;86.50;;;;;;5094273;28;20560;-75
2022/05/16 05:54:15;;;;;;;7.83;4.40;;;14.80;86.60;;;;;;5094400;28;20939;-75
2022/05/16 05:56:44;;;;;;;8.10;4.20;;;15.10;87.30;;;;;;5095159;28;20559;-76
2022/05/16 05:59:12;;;;;;;7.40;3.13;;;15.40;86.70;;;;;;5094481;28;20444;-76
2022/05/16 06:01:40;;;;;;;4.33;3.13;;;15.70;86.70;;;;;;5094271;28;20517;-76
2022/05/16 06:04:09;;;;;;;5.77;2.90;;;16.00;86.60;;;;;;5094194;28;20479;-76
2022/05/16 06:06:40;;;;;;;4.00;2.93;;;16.30;87.10;;;;;;5111126;28;20457;-76
2022/05/16 06:09:08;;;;;;;4.50;2.83;;;16.50;86.10;;;;;;5095630;28;20444;-76
2022/05/16 06:11:36;;;;;;;5.57;3.13;;;16.70;85.70;;;;;;5094216;28;20644;-76
2022/05/16 06:14:05;;;;;;;3.70;3.03;;;17.00;85.80;;;;;;5094014;28;20476;-76
2022/05/16 06:16:33;;;;;;;3.90;2.70;;;17.30;85.70;;;;;;5093893;28;20472;-76
2022/05/16 06:19:01;;;;;;;5.17;3.30;;;17.70;85.20;;;;;;5093876;28;20525;-76
2022/05/16 06:21:29;;;;;;;4.23;2.50;;;18.00;85.10;;;;;;5093769;28;20453;-76
2022/05/16 06:23:59;;;;;;;7.93;3.27;;;18.30;84.90;;;;;;5093798;28;20450;-76
2022/05/16 06:26:28;;;;;;;5.50;3.10;;;18.40;84.70;;;;;;5093755;28;20444;-76
2022/05/16 06:28:56;;;;;;;7.87;3.77;;;18.50;84.20;;;;;;5093947;28;20430;-76
2022/05/16 06:31:49;;;;;;;4.47;2.67;;;18.60;83.60;;;;;;5093576;28;20472;-76
2022/05/16 06:34:18;;;;;;;4.07;3.10;;;18.60;83.20;;;;;;5094807;28;20440;-76
2022/05/16 06:36:47;;;;;;;5.40;3.87;;;18.50;82.80;;;;;;5093606;28;20483;-76
2022/05/16 06:39:16;;;;;;;9.23;5.80;;;18.70;83.00;;;;;;5094802;28;20502;-76
2022/05/16 06:41:44;;;;;;;6.13;4.17;;;18.80;83.10;;;;;;5094671;28;20550;-76
2022/05/16 06:44:14;;;;;;;4.37;2.87;;;18.90;82.90;;;;;;5093611;28;20531;-76
2022/05/16 06:46:44;;;;;;;5.87;3.47;;;18.90;82.50;;;;;;5094859;28;20440;-76
2022/05/16 06:49:12;;;;;;;5.07;3.30;;;18.90;82.40;;;;;;5093225;28;20965;-76
2022/05/16 06:51:41;;;;;;;5.67;2.97;;;19.00;82.30;;;;;;5093167;28;20563;-77
2022/05/16 06:54:09;;;;;;;4.23;3.40;;;19.20;82.20;;;;;;5094483;28;20528;-76
2022/05/16 06:56:38;;;;;;;3.77;3.00;;;19.30;81.90;;;;;;5094831;28;20563;-76
2022/05/16 06:59:07;;;;;;;4.40;3.70;;;19.50;81.80;;;;;;5093284;28;20452;-76
2022/05/16 07:01:35;;;;;;;11.00;7.10;;;19.60;81.70;;;;;;5093001;28;20993;-76
2022/05/16 07:04:04;;;;;;;6.63;3.00;;;19.70;81.30;;;;;;5093342;28;20449;-76
2022/05/16 07:06:32;;;;;;;5.30;3.20;;;19.80;80.90;;;;;;5094716;28;20485;-77
2022/05/16 07:09:01;;;;;;;4.73;2.87;;;19.90;80.70;;;;;;5093916;28;20466;-77
2022/05/16 07:11:30;;;;;;;3.80;2.83;;;20.00;80.50;;;;;;5094448;28;20486;-77
2022/05/16 07:13:59;;;;;;;3.80;2.93;;;20.10;80.50;;;;;;5094556;28;20439;-77
2022/05/16 07:16:27;;;;;;;4.70;3.27;;;20.30;80.60;;;;;;5093086;28;20514;-76
2022/05/16 07:18:56;;;;;;;3.80;3.40;;;20.60;80.70;;;;;;5093262;28;20576;-77
2022/05/16 07:21:24;;;;;;;3.97;2.73;;;20.80;80.30;;;;;;5095010;28;20984;-77
2022/05/16 07:23:52;;;;;;;6.10;3.63;;;21.00;80.20;;;;;;5094855;28;20532;-77
2022/05/16 07:29:07;;;;;;;4.80;2.70;;;21.50;80.00;;;;;;5093909;28;20451;-78
2022/05/16 07:31:36;;;;;;;4.50;3.10;;;21.60;79.10;;;;;;5095427;28;20491;-78
2022/05/16 07:34:05;;;;;;;4.77;3.17;;;21.60;78.40;;;;;;5095874;28;20447;-79
2022/05/16 07:36:33;;;;;;;4.50;2.80;;;21.50;77.80;;;;;;5095264;28;20459;-78
2022/05/16 07:39:01;;;;;;;4.00;2.90;;;21.40;77.90;;;;;;5093659;28;20483;-79
2022/05/16 07:41:31;;;;;;;4.60;3.47;;;21.40;78.00;;;;;;5095539;28;20541;-79
2022/05/16 07:43:59;;;;;;;4.77;3.53;;;21.50;77.90;;;;;;5094590;28;20440;-78
2022/05/16 07:46:29;;;;;;;3.23;2.50;;;21.50;77.40;;;;;;5093719;28;20444;-78
2022/05/16 07:48:57;;;;;;;4.00;2.73;;;21.50;77.40;;;;;;5093537;28;20453;-79
2022/05/16 07:51:25;;;;;;;10.93;3.00;;;21.40;77.40;;;;;;5094304;28;20472;-79
2022/05/16 07:53:55;;;;;;;10.53;4.30;;;21.60;77.70;;;;;;5094503;28;20494;-79
2022/05/16 07:56:24;;;;;;;5.10;3.03;;;21.70;77.80;;;;;;5093527;28;20468;-78
2022/05/16 07:58:52;;;;;;;3.67;2.43;;;21.90;78.20;;;;;;5093460;28;20441;-79
2022/05/16 08:01:20;;;;;;;4.43;2.73;;;22.00;77.80;;;;;;5094353;28;20555;-79
2022/05/16 08:03:50;;;;;;;8.43;3.23;;;22.10;77.50;;;;;;5098779;28;20433;-79
2022/05/16 08:06:18;;;;;;;4.60;2.80;;;22.10;77.10;;;;;;5104604;28;20569;-78
2022/05/16 08:11:31;;;;;;;5.67;2.50;;;22.00;77.00;;;;;;5095281;28;20471;-79
2022/05/16 08:14:00;;;;;;;4.80;3.10;;;22.00;76.50;;;;;;5094262;28;20531;-79
2022/05/16 08:16:28;;;;;;;3.80;2.70;;;22.00;76.80;;;;;;5094935;28;20531;-78
2022/05/16 08:18:58;;;;;;;3.70;2.50;;;22.20;77.10;;;;;;5094476;28;20443;-77
2022/05/16 08:21:26;;;;;;;6.43;2.83;;;22.30;76.50;;;;;;5095380;28;20471;-77
2022/05/16 08:23:54;;;;;;;4.53;2.63;;;22.40;76.50;;;;;;5096570;28;20468;-77
2022/05/16 08:26:23;;;;;;;5.20;3.67;;;22.50;76.50;;;;;;5098680;28;20444;-77
2022/05/16 08:28:51;;;;;;;5.37;3.23;;;22.70;76.30;;;;;;5098678;28;20436;-78
2022/05/16 08:31:19;;;;;;;3.90;3.10;;;22.80;76.10;;;;;;5098398;28;20965;-78
2022/05/16 08:33:48;;;;;;;4.37;2.67;;;22.90;75.70;;;;;;5098221;28;20826;-77
2022/05/16 08:41:54;;;;;;;4.73;3.10;;;23.30;75.60;;;;;;5098950;28;20849;-78
2022/05/16 08:44:25;;;;;;;3.87;2.67;;;23.50;75.60;;;;;;5098345;28;20471;-77
2022/05/16 08:47:02;;;;;;;3.77;3.17;;;23.60;75.60;;;;;;5098031;28;20428;-78
2022/05/16 08:49:37;;;;;;;3.77;2.80;;;23.80;75.30;;;;;;5097590;28;20436;-77
2022/05/16 08:52:12;;;;;;;5.13;2.97;;;23.90;75.20;;;;;;5097323;28;20460;-78
2022/05/16 08:54:45;;;;;;;4.07;2.60;;;24.00;75.10;;;;;;5099274;28;20428;-77
2022/05/16 08:57:18;;;;;;;5.67;3.80;;;24.20;74.90;;;;;;5097734;28;20964;-77
2022/05/16 08:59:54;;;;;;;5.60;3.20;;;24.30;74.70;;;;;;5098010;28;20439;-78
2022/05/16 09:02:24;;;;;;;4.63;2.60;;;24.40;74.60;;;;;;5098269;28;21010;-77
2022/05/16 09:05:03;;;;;;;3.40;2.40;;;24.60;74.10;;;;;;5097279;28;20440;-77
2022/05/16 09:07:41;;;;;;;6.10;2.77;;;24.60;73.60;;;;;;5097347;28;20519;-77
2022/05/16 09:10:12;;;;;;;5.57;2.90;;;24.70;73.80;;;;;;5098355;28;20459;-78
2022/05/16 09:12:51;;;;;;;3.90;2.37;;;24.80;73.70;;;;;;5097913;28;20476;-78
2022/05/16 09:15:30;;;;;;;4.77;2.97;;;25.00;73.80;;;;;;5098055;28;20956;-78
2022/05/16 09:18:24;;;;;;;3.47;2.60;;;25.10;73.50;;;;;;5098425;28;20492;-77
2022/05/16 09:21:01;;;;;;;4.13;2.60;;;25.20;73.10;;;;;;5097280;28;20539;-78
2022/05/16 09:23:42;;;;;;;3.47;2.10;;;25.40;73.10;;;;;;5096300;28;20534;-77
2022/05/16 09:26:24;;;;;;;3.57;2.20;;;25.60;73.10;;;;;;5097979;28;20444;-77
2022/05/16 09:28:59;;;;;;;5.23;2.67;;;25.70;72.80;;;;;;5096634;28;20482;-77
2022/05/16 09:31:30;;;;;;;4.47;2.70;;;25.90;72.40;;;;;;5096072;28;20525;-78
2022/05/16 09:34:00;;;;;;;4.07;2.60;;;25.90;72.10;;;;;;5098074;28;20954;-77
2022/05/16 09:36:34;;;;;;;5.10;3.40;;;26.10;71.70;;;;;;5097986;28;20448;-77
2022/05/16 09:39:05;;;;;;;5.43;3.40;;;26.20;71.30;;;;;;5096028;28;20848;-77
2022/05/16 09:41:42;;;;;;;6.80;3.43;;;26.20;70.90;;;;;;5097828;28;20456;-77
2022/05/16 09:44:15;;;;;;;5.27;2.60;;;26.30;70.80;;;;;;5096337;28;20440;-77
2022/05/16 09:46:45;;;;;;;5.00;3.10;;;26.40;70.40;;;;;;5096163;28;20523;-77
2022/05/16 09:49:20;;;;;;;5.70;2.73;;;26.50;70.00;;;;;;5095679;28;20483;-77
2022/05/16 09:51:50;;;;;;;5.50;2.63;;;26.50;69.70;;;;;;5096780;28;20472;-77
2022/05/16 09:54:30;;;;;;;5.23;2.57;;;26.60;69.90;;;;;;5096158;28;20531;-77
2022/05/16 09:57:19;;;;;;;7.70;2.67;;;26.80;69.70;;;;;;5098259;28;20424;-78
2022/05/16 09:59:50;;;;;;;3.20;2.57;;;26.90;69.10;;;;;;5095787;28;20482;-77
2022/05/16 10:02:28;;;;;;;3.53;2.93;;;27.00;69.10;;;;;;5095543;28;20661;-77
2022/05/16 10:04:59;;;;;;;2.93;2.23;;;27.10;69.00;;;;;;5095222;28;20493;-78
2022/05/16 10:07:30;;;;;;;8.87;3.03;;;27.10;68.30;;;;;;5095679;28;20546;-78
2022/05/16 10:10:00;;;;;;;4.47;2.23;;;27.20;67.80;;;;;;5096127;28;20480;-78
2022/05/16 10:12:30;;;;;;;3.00;2.47;;;27.20;67.40;;;;;;5096461;28;20475;-78
2022/05/16 10:14:59;;;;;;;5.57;2.90;;;27.10;66.70;;;;;;5100992;28;20834;-78
2022/05/16 10:17:32;;;;;;;5.07;2.97;;;27.10;67.10;;;;;;5099692;28;20458;-78
2022/05/16 10:20:05;;;;;;;11.90;3.03;;;27.20;67.30;;;;;;5097023;28;20433;-78
2022/05/16 10:22:34;;;;;;;3.60;2.90;;;27.30;67.30;;;;;;5096478;28;20509;-78
2022/05/16 10:25:29;;;;;;;4.03;2.70;;;27.40;67.20;;;;;;5097614;28;20812;-78
2022/05/16 10:28:01;;;;;;;4.43;2.67;;;27.60;67.50;;;;;;5096499;28;20930;-77
2022/05/16 10:30:32;;;;;;;2.53;2.33;;;27.60;66.70;;;;;;5097699;28;20471;-78
2022/05/16 10:35:53;;;;;;;5.80;3.07;;;27.80;65.80;;;;;;5096872;28;20444;-78
2022/05/16 10:38:39;;;;;;;3.73;3.07;;;27.80;65.00;;;;;;5097754;28;21011;-78
2022/05/16 10:41:14;;;;;;;5.20;2.93;;;27.70;65.30;;;;;;5097811;28;20539;-78
2022/05/16 10:44:01;;;;;;;4.47;3.13;;;27.80;65.40;;;;;;5095910;28;20440;-78
2022/05/16 10:46:34;;;;;;;4.17;2.73;;;27.80;64.90;;;;;;5096164;28;20432;-78
2022/05/16 10:49:05;;;;;;;5.20;2.87;;;27.90;64.80;;;;;;5095873;28;20909;-78
2022/05/16 10:51:41;;;;;;;4.53;2.83;;;27.90;64.70;;;;;;5096508;28;20492;-78
2022/05/16 10:54:13;;;;;;;4.90;3.30;;;28.00;64.40;;;;;;5099254;28;20455;-78
2022/05/16 10:57:13;;;;;;;5.40;2.60;;;28.00;64.40;;;;;;5095916;28;20478;-78
2022/05/16 10:59:59;;;;;;;5.20;3.30;;;28.00;64.20;;;;;;5095854;28;20468;-78
2022/05/16 11:02:39;;;;;;;5.20;3.10;;;28.10;63.90;;;;;;5095093;28;20460;-78
2022/05/16 11:05:20;;;;;;;14.23;4.17;;;28.10;63.50;;;;;;5096220;28;20436;-78
2022/05/16 11:07:58;;;;;;;5.50;3.30;;;28.00;63.60;;;;;;5097200;28;20436;-78
2022/05/16 11:10:33;;;;;;;6.20;3.47;;;28.10;63.80;;;;;;5096874;28;20901;-78
2022/05/16 11:13:19;;;;;;;3.90;3.20;;;28.00;63.90;;;;;;5096689;28;20415;-78
2022/05/16 11:15:54;;;;;;;5.30;2.63;;;28.10;64.00;;;;;;5095568;28;20476;-78
2022/05/16 11:18:29;;;;;;;4.10;2.97;;;28.20;64.20;;;;;;5095067;28;21010;-78
2022/05/16 11:21:05;;;;;;;5.00;3.20;;;28.30;63.80;;;;;;5094368;28;20506;-77
2022/05/16 11:23:45;;;;;;;5.13;3.83;;;28.30;63.50;;;;;;5096820;28;20429;-77
2022/05/16 11:26:17;;;;;;;4.30;2.97;;;28.30;63.40;;;;;;5095122;28;20443;-77
2022/05/16 11:31:57;;;;;;;4.53;3.57;;;28.30;62.80;;;;;;5096446;28;20489;-78
2022/05/16 11:34:32;;;;;;;7.37;3.53;;;28.30;63.80;;;;;;5097503;28;20450;-78
2022/05/16 11:37:08;;;;;;;6.03;3.33;;;28.30;63.10;;;;;;5100552;28;20523;-78
2022/05/16 11:39:44;;;;;;;7.27;3.20;;;28.40;63.20;;;;;;5096263;28;20471;-77
2022/05/16 11:42:22;;;;;;;3.77;3.00;;;28.50;62.90;;;;;;5097643;28;20495;-78
2022/05/16 11:45:04;;;;;;;7.30;3.00;;;28.50;62.90;;;;;;5097423;28;20468;-78
2022/05/16 11:47:36;;;;;;;9.07;3.33;;;28.60;62.70;;;;;;5096958;28;20910;-78
2022/05/16 11:50:31;;;;;;;6.73;3.53;;;28.60;62.70;;;;;;5097240;28;20450;-78
2022/05/16 11:53:15;;;;;;;4.97;3.17;;;28.70;62.80;;;;;;5096709;28;20526;-78
2022/05/16 12:01:33;;;;;;;4.73;2.90;;;28.80;62.30;;;;;;5095981;28;20460;-78
2022/05/16 12:04:12;;;;;;;6.50;2.90;;;28.80;62.10;;;;;;5096504;28;20505;-78
2022/05/16 12:06:44;;;;;;;4.70;3.83;;;28.80;62.40;;;;;;5096710;28;20449;-78
2022/05/16 12:09:21;;;;;;;6.10;3.73;;;28.80;62.20;;;;;;5096602;28;20443;-78
2022/05/16 12:11:54;;;;;;;6.90;3.00;;;28.80;62.20;;;;;;5097808;28;20487;-78
2022/05/16 12:14:29;;;;;;;10.03;9.13;;;28.80;62.20;;;;;;5095855;28;20436;-78
2022/05/16 12:17:19;;;;;;;4.80;3.50;;;28.90;62.40;;;;;;5096182;28;20432;-78
2022/05/16 12:19:50;;;;;;;4.67;3.97;;;28.90;62.20;;;;;;5094423;28;20460;-77
2022/05/16 12:22:24;;;;;;;5.53;3.50;;;28.90;62.10;;;;;;5095149;28;20471;-79
2022/05/16 12:25:05;;;;;;;4.13;3.50;;;28.80;61.90;;;;;;5093925;28;20437;-78
2022/05/16 12:27:36;;;;;;;6.20;3.33;;;28.70;61.60;;;;;;5098230;28;20503;-79
2022/05/16 12:30:08;;;;;;;3.93;2.77;;;28.70;61.70;;;;;;5097934;28;20448;-80
2022/05/16 12:32:54;;;;;;;7.20;3.40;;;28.60;61.60;;;;;;5100865;28;20965;-79
2022/05/16 12:35:46;;;;;;;5.00;4.10;;;28.60;61.70;;;;;;5099609;28;20428;-78
2022/05/16 12:38:18;;;;;;;5.03;3.93;;;28.50;61.70;;;;;;5099614;28;20491;-78
2022/05/16 12:41:40;;;;;;;6.27;3.80;;;28.40;61.80;;;;;;5098845;28;20658;-78
2022/05/16 12:44:19;;;;;;;7.93;3.67;;;28.30;61.70;;;;;;5064720;28;20445;-79
2022/05/16 12:46:57;;;;;;;5.03;3.43;;;28.20;62.00;;;;;;5064802;28;21070;-79
2022/05/16 12:49:46;;;;;;;4.20;2.87;;;28.10;62.80;;;;;;5087970;28;20535;-79
2022/05/16 12:52:31;;;;;;;12.57;4.43;;;28.10;62.50;;;;;;5103835;28;20486;-79
2022/05/16 12:55:28;;;;;;;5.00;3.77;;;28.10;62.90;;;;;;5104351;28;20428;-79
2022/05/16 12:58:06;;;;;;;5.97;3.60;;;28.10;62.90;;;;;;5101173;28;20460;-79
2022/05/16 13:00:42;;;;;;;5.10;3.57;;;28.10;62.80;;;;;;5092015;28;20494;-76
2022/05/16 13:03:38;;;;;;;6.97;5.03;;;28.10;62.60;;;;;;5092853;28;20469;-76
2022/05/16 13:06:34;;;;;;;3.83;3.47;;;28.10;62.60;;;;;;5092565;28;20446;-76
2022/05/16 13:09:15;;;;;;;4.17;3.47;;;28.10;63.00;;;;;;5097508;28;20953;-77
2022/05/16 13:11:53;;;;;;;4.40;3.00;;;28.20;63.00;;;;;;5098805;28;20527;-77
2022/05/16 13:14:30;;;;;;;7.43;3.30;;;28.20;63.10;;;;;;5097224;28;20449;-77
2022/05/16 13:17:04;;;;;;;3.93;3.53;;;28.30;63.40;;;;;;5096421;28;20444;-77
2022/05/16 13:19:34;;;;;;;7.23;3.60;;;28.40;63.40;;;;;;5096588;28;20490;-77
2022/05/16 13:22:07;;;;;;;7.17;4.53;;;28.40;63.20;;;;;;5098298;28;20812;-77
2022/05/16 13:24:35;;;;;;;9.87;6.53;;;28.40;63.10;;;;;;5098566;28;20423;-77
2022/05/16 13:30:11;;;;;;;4.70;3.50;;;28.20;62.90;;;;;;5094901;28;20490;-75
2022/05/16 13:32:40;;;;;;;6.60;4.67;;;28.10;62.90;;;;;;5094746;28;20521;-75
2022/05/16 13:35:10;;;;;;;6.37;3.40;;;28.00;63.00;;;;;;5096056;28;20891;-75
2022/05/16 13:37:46;;;;;;;5.10;3.70;;;28.00;63.30;;;;;;5094663;28;20440;-75
2022/05/16 13:40:25;;;;;;;5.10;3.90;;;28.00;63.60;;;;;;5095092;28;20463;-75
2022/05/16 13:42:54;;;;;;;9.70;3.80;;;28.00;63.60;;;;;;5096508;28;20909;-75
2022/05/16 13:45:25;;;;;;;5.67;4.00;;;28.10;63.80;;;;;;5095812;28;20454;-75
2022/05/16 13:47:54;;;;;;;6.10;3.37;;;28.20;63.70;;;;;;5096119;28;20417;-75
2022/05/16 13:50:25;;;;;;;6.30;3.80;;;28.30;64.30;;;;;;5095666;28;20787;-75
2022/05/16 13:52:55;;;;;;;4.83;3.60;;;28.30;63.80;;;;;;5095698;28;20894;-75